Time;durP1;ratioP1;P1;durP2;ratioP2;P2;SDS_P1;SDS_P2;PMS_P1;PMS_P2;Temp;Humidity;BMP_temperature;BMP_pressure;BME280_temperature;BME280_humidity;BME280_pressure;Samples;Min_cycle;Max_cycle;Signal;HPM_P1;HPM_P2
2022/11/05 00:09:28;;;;;;;72.50;39.25;;;;;;;;;;6195828;28;20026;-77
2022/11/05 00:10:47;;;;;;;84.43;48.20;;;;;;;;;;6201346;28;20050;-77
2022/11/05 00:17:06;;;;;;;71.80;41.13;;;;;;;;;;6201026;28;20022;-76
2022/11/05 00:20:07;;;;;;;76.30;40.30;;;;;;;;;;6200827;28;20106;-76
2022/11/05 00:26:26;;;;;;;49.90;27.17;;;;;;;;;;6201652;28;20457;-76
2022/11/05 00:29:26;;;;;;;44.55;24.50;;;;;;;;;;6202138;28;20030;-76
2022/11/05 00:32:26;;;;;;;30.17;19.27;;;;;;;;;;6201502;28;20253;-76
2022/11/05 00:35:27;;;;;;;29.20;17.70;;;;;;;;;;6201415;28;20042;-76
2022/11/05 00:38:28;;;;;;;31.67;19.87;;;;;;;;;;6201622;28;20121;-77
2022/11/05 00:41:28;;;;;;;22.92;15.32;;;;;;;;;;6200746;28;20026;-77
2022/11/05 00:51:06;;;;;;;11.50;6.93;;;;;;;;;;6202700;28;20034;-78
2022/11/05 00:54:06;;;;;;;12.38;7.32;;;;;;;;;;6200946;28;20029;-77
2022/11/05 00:57:07;;;;;;;10.77;6.87;;;;;;;;;;6181753;28;20093;-77
2022/11/05 01:00:07;;;;;;;10.90;6.77;;;;;;;;;;6200681;28;20030;-77
2022/11/05 01:03:09;;;;;;;9.83;6.00;;;;;;;;;;6200752;28;20507;-77
2022/11/05 01:06:11;;;;;;;10.45;5.75;;;;;;;;;;6200251;28;20642;-77
2022/11/05 01:09:11;;;;;;;21.70;11.45;;;;;;;;;;6182688;28;20462;-78
2022/11/05 01:12:12;;;;;;;15.73;5.00;;;;;;;;;;6199341;28;20025;-78
2022/11/05 01:15:12;;;;;;;8.35;5.00;;;;;;;;;;6180823;28;20018;-78
2022/11/05 01:18:13;;;;;;;7.57;4.93;;;;;;;;;;6181470;28;20021;-78
2022/11/05 01:21:14;;;;;;;9.83;4.73;;;;;;;;;;6198919;28;20026;-78
2022/11/05 01:24:14;;;;;;;10.48;6.28;;;;;;;;;;6182528;28;20526;-78
2022/11/05 01:27:14;;;;;;;12.80;6.90;;;;;;;;;;6199432;28;20443;-78
2022/11/05 01:30:15;;;;;;;14.27;7.47;;;;;;;;;;6181958;28;20007;-78
2022/11/05 01:33:15;;;;;;;10.33;7.23;;;;;;;;;;6199364;28;20440;-78
2022/11/05 01:36:16;;;;;;;12.18;6.55;;;;;;;;;;6198480;28;20025;-77
2022/11/05 01:39:16;;;;;;;8.63;5.50;;;;;;;;;;6197481;28;20026;-77
2022/11/05 01:42:21;;;;;;;10.57;6.93;;;;;;;;;;6198146;28;20076;-78
2022/11/05 01:45:24;;;;;;;11.23;7.43;;;;;;;;;;6195229;28;20056;-78
2022/11/05 01:48:31;;;;;;;13.07;9.52;;;;;;;;;;6196498;28;20021;-78
2022/11/05 01:51:32;;;;;;;12.48;9.23;;;;;;;;;;6198370;28;20044;-78
2022/11/05 01:54:33;;;;;;;15.18;10.68;;;;;;;;;;6199132;28;20426;-77
2022/11/05 01:57:33;;;;;;;12.82;9.18;;;;;;;;;;6181298;28;20022;-77
2022/11/05 02:00:35;;;;;;;15.97;9.13;;;;;;;;;;6172546;28;20043;-78
2022/11/05 02:03:35;;;;;;;13.57;9.75;;;;;;;;;;6172812;28;20019;-78
2022/11/05 02:06:37;;;;;;;12.50;8.27;;;;;;;;;;6174259;28;20074;-77
2022/11/05 02:09:49;;;;;;;12.68;7.20;;;;;;;;;;6171925;28;20087;-77
2022/11/05 02:12:49;;;;;;;14.77;7.75;;;;;;;;;;6172061;28;20057;-77
2022/11/05 02:16:07;;;;;;;12.73;8.02;;;;;;;;;;6172864;28;20019;-77
2022/11/05 02:19:19;;;;;;;13.52;7.53;;;;;;;;;;6173838;28;20266;-77
2022/11/05 02:22:19;;;;;;;;;;;;;;;;;;6172264;28;20442;-78
2022/11/05 02:25:25;;;;;;;10.95;7.93;;;;;;;;;;6174005;28;20286;-77
2022/11/05 02:28:25;;;;;;;12.82;8.60;;;;;;;;;;6172553;28;20018;-77
2022/11/05 02:31:32;;;;;;;10.55;6.88;;;;;;;;;;6170473;28;20018;-77
2022/11/05 02:34:32;;;;;;;9.55;6.53;;;;;;;;;;6173680;28;20049;-77
2022/11/05 02:37:38;;;;;;;13.68;8.77;;;;;;;;;;6173148;28;20038;-77
2022/11/05 02:40:48;;;;;;;11.52;7.43;;;;;;;;;;6174092;28;20254;-77
2022/11/05 02:44:03;;;;;;;9.80;7.55;;;;;;;;;;6174006;28;20525;-77
2022/11/05 02:47:03;;;;;;;7.15;5.28;;;;;;;;;;6171804;28;20015;-77
2022/11/05 02:50:19;;;;;;;10.70;6.20;;;;;;;;;;6170284;28;20780;-77
2022/11/05 02:53:38;;;;;;;9.00;7.22;;;;;;;;;;6171983;28;20328;-77
2022/11/05 02:56:40;;;;;;;8.98;6.43;;;;;;;;;;6171368;28;20030;-77
2022/11/05 02:59:40;;;;;;;9.82;7.20;;;;;;;;;;6170080;28;20043;-77
2022/11/05 03:02:41;;;;;;;13.55;8.30;;;;;;;;;;6171364;28;20101;-76
2022/11/05 03:05:56;;;;;;;11.80;8.00;;;;;;;;;;6188952;28;20073;-76
2022/11/05 03:09:10;;;;;;;10.90;8.15;;;;;;;;;;6171365;28;20023;-77
2022/11/05 03:12:30;;;;;;;10.13;7.85;;;;;;;;;;6173089;28;20023;-78
2022/11/05 03:15:33;;;;;;;11.73;8.77;;;;;;;;;;6172653;28;20023;-77
2022/11/05 03:18:33;;;;;;;9.73;8.02;;;;;;;;;;6173224;28;20030;-77
2022/11/05 03:21:39;;;;;;;8.85;6.10;;;;;;;;;;6175767;28;20446;-77
2022/11/05 03:24:46;;;;;;;11.15;7.90;;;;;;;;;;6170963;28;20653;-77
2022/11/05 03:27:48;;;;;;;12.88;7.90;;;;;;;;;;6176381;28;20097;-77
2022/11/05 03:30:50;;;;;;;10.48;7.13;;;;;;;;;;6178097;28;20113;-77
2022/11/05 03:33:52;;;;;;;11.40;6.90;;;;;;;;;;6176410;28;20577;-77
2022/11/05 03:36:52;;;;;;;;;;;;;;;;;;6177724;28;20023;-77
2022/11/05 03:39:55;;;;;;;9.70;7.00;;;;;;;;;;6190233;28;19915;-77
2022/11/05 03:42:56;;;;;;;9.35;6.10;;;;;;;;;;6178173;28;20027;-77
2022/11/05 03:45:58;;;;;;;9.48;6.05;;;;;;;;;;6177112;28;20011;-77
2022/11/05 03:48:58;;;;;;;;;;;;;;;;;;6191069;28;20015;-77
2022/11/05 03:52:13;;;;;;;9.45;6.32;;;;;;;;;;6175390;28;19917;-77
2022/11/05 03:55:13;;;;;;;9.40;5.68;;;;;;;;;;6174356;28;20054;-77
2022/11/05 03:58:14;;;;;;;9.40;7.25;;;;;;;;;;6178526;28;20038;-77
2022/11/05 04:01:14;;;;;;;8.10;5.40;;;;;;;;;;6183700;28;20478;-77
2022/11/05 04:04:15;;;;;;;7.65;5.43;;;;;;;;;;6200717;28;20066;-77
2022/11/05 04:13:53;;;;;;;8.15;6.32;;;;;;;;;;6199790;28;20026;-77
2022/11/05 04:17:05;;;;;;;10.75;7.07;;;;;;;;;;6183599;28;20041;-77
2022/11/05 04:26:44;;;;;;;11.60;5.97;;;;;;;;;;6199842;28;20027;-77
2022/11/05 04:33:04;;;;;;;13.43;7.72;;;;;;;;;;6200512;28;20441;-77
2022/11/05 04:36:04;;;;;;;;;;;;;;;;;;6200763;28;20438;-77
2022/11/05 04:39:05;;;;;;;9.77;6.47;;;;;;;;;;6184144;28;20312;-77
2022/11/05 04:42:05;;;;;;;10.88;6.85;;;;;;;;;;6200071;28;20087;-77
2022/11/05 04:45:05;;;;;;;13.88;8.52;;;;;;;;;;6181754;28;20018;-77
2022/11/05 04:48:05;;;;;;;10.30;6.07;;;;;;;;;;6199995;28;20026;-77
2022/11/05 04:51:05;;;;;;;14.77;10.00;;;;;;;;;;6198846;28;20015;-77
2022/11/05 04:54:06;;;;;;;15.87;11.00;;;;;;;;;;6182393;28;20033;-77
2022/11/05 04:57:06;;;;;;;21.33;12.73;;;;;;;;;;6180845;28;20044;-77
2022/11/05 05:00:07;;;;;;;17.30;11.10;;;;;;;;;;6198653;28;20049;-77
2022/11/05 05:03:07;;;;;;;13.57;9.37;;;;;;;;;;6181835;28;20399;-77
2022/11/05 05:06:08;;;;;;;26.80;12.23;;;;;;;;;;6181979;28;20049;-77
2022/11/05 05:09:08;;;;;;;18.00;13.03;;;;;;;;;;6200115;28;20050;-77
2022/11/05 05:12:08;;;;;;;16.97;10.97;;;;;;;;;;6198132;28;20101;-77
2022/11/05 05:15:08;;;;;;;16.60;10.80;;;;;;;;;;6183001;28;20109;-77
2022/11/05 05:18:09;;;;;;;14.63;9.52;;;;;;;;;;6198246;28;20037;-77
2022/11/05 05:24:27;;;;;;;17.88;10.90;;;;;;;;;;6198488;28;20707;-77
2022/11/05 05:27:28;;;;;;;22.80;14.45;;;;;;;;;;6198538;28;20108;-77
2022/11/05 05:30:28;;;;;;;19.88;12.90;;;;;;;;;;6198306;28;20304;-77
2022/11/05 05:33:28;;;;;;;21.70;13.13;;;;;;;;;;6198002;28;20161;-77
2022/11/05 05:36:28;;;;;;;21.65;14.05;;;;;;;;;;6180755;28;20299;-77
2022/11/05 05:39:29;;;;;;;23.70;15.52;;;;;;;;;;6180810;28;20022;-77
2022/11/05 05:42:29;;;;;;;25.13;15.13;;;;;;;;;;6180121;28;20127;-77
2022/11/05 05:45:29;;;;;;;19.67;12.77;;;;;;;;;;6181062;28;20401;-77
2022/11/05 05:48:29;;;;;;;18.52;11.98;;;;;;;;;;6198424;28;20064;-77
2022/11/05 05:51:29;;;;;;;18.67;10.23;;;;;;;;;;6180357;28;20019;-77
2022/11/05 05:54:30;;;;;;;18.60;11.05;;;;;;;;;;6180089;28;20580;-78
2022/11/05 05:57:30;;;;;;;18.07;11.80;;;;;;;;;;6178386;28;20090;-77
2022/11/05 06:00:30;;;;;;;20.13;9.90;;;;;;;;;;6197643;28;20453;-77
2022/11/05 06:03:31;;;;;;;31.73;16.10;;;;;;;;;;6196092;28;20058;-77
2022/11/05 06:06:31;;;;;;;18.33;10.97;;;;;;;;;;6179496;28;20022;-77
2022/11/05 06:09:31;;;;;;;18.27;12.87;;;;;;;;;;6198861;28;20018;-77
2022/11/05 06:12:31;;;;;;;22.67;13.48;;;;;;;;;;6179925;28;20022;-77
2022/11/05 06:15:32;;;;;;;22.87;14.07;;;;;;;;;;6196944;28;20022;-76
2022/11/05 06:18:32;;;;;;;20.90;13.63;;;;;;;;;;6198137;28;20023;-77
2022/11/05 06:21:32;;;;;;;25.80;15.03;;;;;;;;;;6179128;28;20018;-77
2022/11/05 06:24:33;;;;;;;20.33;14.03;;;;;;;;;;6180339;28;20493;-77
2022/11/05 06:27:35;;;;;;;20.50;11.35;;;;;;;;;;6198109;28;20102;-76
2022/11/05 06:30:35;;;;;;;17.02;11.43;;;;;;;;;;6180233;28;20258;-76
2022/11/05 06:33:36;;;;;;;17.75;11.10;;;;;;;;;;6196329;28;20501;-76
2022/11/05 06:36:36;;;;;;;13.23;9.10;;;;;;;;;;6196964;28;20276;-77
2022/11/05 06:39:36;;;;;;;18.20;12.85;;;;;;;;;;6197850;28;20069;-77
2022/11/05 06:42:36;;;;;;;16.73;11.70;;;;;;;;;;6193495;28;20289;-78
2022/11/05 06:45:36;;;;;;;17.23;11.60;;;;;;;;;;6194512;28;20037;-77
2022/11/05 06:48:37;;;;;;;17.90;12.95;;;;;;;;;;6196130;28;20102;-77
2022/11/05 06:51:37;;;;;;;19.03;13.50;;;;;;;;;;6178476;28;20437;-77
2022/11/05 06:54:38;;;;;;;18.17;12.27;;;;;;;;;;6197216;28;20026;-77
2022/11/05 06:57:38;;;;;;;17.83;11.97;;;;;;;;;;6202150;28;20034;-77
2022/11/05 07:00:38;;;;;;;18.20;12.63;;;;;;;;;;6200693;28;20046;-77
2022/11/05 07:03:38;;;;;;;19.75;11.32;;;;;;;;;;6201981;28;20662;-77
2022/11/05 07:06:39;;;;;;;18.97;12.53;;;;;;;;;;6185629;28;20023;-77
2022/11/05 07:09:41;;;;;;;19.13;13.65;;;;;;;;;;6200660;28;20033;-77
2022/11/05 07:12:42;;;;;;;18.48;12.52;;;;;;;;;;6200735;28;20026;-77
2022/11/05 07:15:42;;;;;;;19.80;11.90;;;;;;;;;;6183701;28;20034;-77
2022/11/05 07:18:42;;;;;;;19.03;12.83;;;;;;;;;;6201645;28;20451;-77
2022/11/05 07:21:44;;;;;;;18.03;11.20;;;;;;;;;;6184197;28;20061;-77
2022/11/05 07:24:46;;;;;;;18.38;11.50;;;;;;;;;;6201366;28;20474;-77
2022/11/05 07:27:46;;;;;;;15.63;10.55;;;;;;;;;;6201186;28;20045;-77
2022/11/05 07:30:47;;;;;;;18.20;11.67;;;;;;;;;;6201774;28;20030;-77
2022/11/05 07:33:47;;;;;;;18.60;12.90;;;;;;;;;;6200799;28;20517;-77
2022/11/05 07:36:47;;;;;;;17.77;12.23;;;;;;;;;;6201105;28;20089;-77
2022/11/05 07:39:47;;;;;;;20.45;12.82;;;;;;;;;;6184118;28;20398;-77
2022/11/05 07:42:49;;;;;;;21.08;12.25;;;;;;;;;;6181991;28;20034;-77
2022/11/05 07:45:49;;;;;;;17.80;12.40;;;;;;;;;;6172608;28;20237;-77
2022/11/05 07:48:49;;;;;;;18.98;12.80;;;;;;;;;;6201314;28;20026;-77
2022/11/05 07:51:49;;;;;;;15.68;11.55;;;;;;;;;;6183552;28;20026;-77
2022/11/05 07:54:49;;;;;;;21.18;14.62;;;;;;;;;;6197101;28;20026;-77
2022/11/05 07:57:50;;;;;;;18.25;12.07;;;;;;;;;;6199174;28;20038;-77
2022/11/05 08:00:50;;;;;;;20.60;11.47;;;;;;;;;;6208221;28;20129;-77
2022/11/05 08:03:50;;;;;;;19.07;13.07;;;;;;;;;;6199486;28;20034;-77
2022/11/05 08:06:50;;;;;;;22.63;14.30;;;;;;;;;;6199296;28;20065;-77
2022/11/05 08:09:51;;;;;;;20.98;12.75;;;;;;;;;;6199521;28;20018;-76
2022/11/05 08:12:52;;;;;;;21.03;12.10;;;;;;;;;;6199154;28;20281;-76
2022/11/05 08:15:54;;;;;;;17.75;11.75;;;;;;;;;;6182317;28;20258;-77
2022/11/05 08:18:54;;;;;;;17.65;11.10;;;;;;;;;;6197410;28;20050;-77
2022/11/05 08:21:55;;;;;;;20.20;13.20;;;;;;;;;;6197590;28;20026;-77
2022/11/05 08:24:55;;;;;;;19.98;12.73;;;;;;;;;;6196397;28;20799;-77
2022/11/05 08:27:56;;;;;;;21.83;13.07;;;;;;;;;;6197356;28;20011;-77
2022/11/05 08:30:56;;;;;;;20.67;13.32;;;;;;;;;;6198440;28;20029;-77
2022/11/05 08:33:59;;;;;;;21.40;14.13;;;;;;;;;;6196640;28;20033;-77
2022/11/05 08:36:59;;;;;;;32.05;19.02;;;;;;;;;;6197064;28;20018;-77
2022/11/05 08:39:59;;;;;;;25.45;16.45;;;;;;;;;;6198735;28;20037;-77
2022/11/05 08:43:03;;;;;;;21.77;15.20;;;;;;;;;;6196676;28;20498;-77
2022/11/05 08:46:03;;;;;;;25.00;14.93;;;;;;;;;;6198902;28;20022;-77
2022/11/05 08:49:04;;;;;;;22.38;14.65;;;;;;;;;;6197905;28;20045;-77
2022/11/05 08:52:04;;;;;;;22.03;15.50;;;;;;;;;;6182794;28;20026;-77
2022/11/05 08:55:04;;;;;;;22.52;12.75;;;;;;;;;;6198264;28;20030;-78
2022/11/05 08:58:06;;;;;;;27.70;15.50;;;;;;;;;;6201317;28;20269;-78
2022/11/05 09:01:06;;;;;;;20.38;12.82;;;;;;;;;;6200137;28;20474;-76
2022/11/05 09:04:07;;;;;;;25.88;13.45;;;;;;;;;;6182298;28;20037;-75
2022/11/05 09:07:07;;;;;;;24.80;14.63;;;;;;;;;;6182384;28;20530;-75
2022/11/05 09:10:08;;;;;;;24.07;14.53;;;;;;;;;;6199236;28;20029;-76
2022/11/05 09:13:08;;;;;;;24.70;16.08;;;;;;;;;;6199467;28;20026;-76
2022/11/05 09:16:19;;;;;;;27.23;14.68;;;;;;;;;;6181979;28;20492;-75
2022/11/05 09:19:20;;;;;;;31.25;17.13;;;;;;;;;;6181508;28;20026;-76
2022/11/05 09:22:20;;;;;;;25.95;14.70;;;;;;;;;;6198766;28;20030;-76
2022/11/05 09:25:20;;;;;;;30.85;16.02;;;;;;;;;;6183610;28;20018;-75
2022/11/05 09:28:22;;;;;;;22.93;13.53;;;;;;;;;;6198553;28;20466;-75
2022/11/05 09:31:22;;;;;;;;;;;;;;;;;;6181722;28;20033;-75
2022/11/05 09:34:22;;;;;;;23.75;13.77;;;;;;;;;;6198296;28;19914;-74
2022/11/05 09:37:23;;;;;;;27.10;14.38;;;;;;;;;;6181732;28;20030;-74
2022/11/05 09:40:24;;;;;;;31.95;16.00;;;;;;;;;;6197358;28;20852;-74
2022/11/05 09:43:26;;;;;;;26.77;16.65;;;;;;;;;;6197678;28;20026;-74
2022/11/05 09:46:28;;;;;;;29.33;16.30;;;;;;;;;;6171686;28;20100;-74
2022/11/05 09:49:38;;;;;;;30.67;17.45;;;;;;;;;;6197742;28;20021;-74
2022/11/05 09:52:38;;;;;;;35.00;20.38;;;;;;;;;;6196900;28;20030;-73
2022/11/05 09:55:41;;;;;;;27.05;15.45;;;;;;;;;;6196229;28;20045;-75
2022/11/05 09:58:45;;;;;;;29.77;17.30;;;;;;;;;;6179116;28;20038;-75
2022/11/05 10:01:46;;;;;;;31.15;17.83;;;;;;;;;;6191955;28;20031;-75
2022/11/05 10:04:47;;;;;;;;;;;;;;;;;;6194562;28;20089;-75
2022/11/05 10:08:11;;;;;;;32.17;17.17;;;;;;;;;;6178834;28;19917;-75
2022/11/05 10:11:19;;;;;;;28.65;17.55;;;;;;;;;;6184931;28;20037;-74
2022/11/05 10:14:27;;;;;;;29.13;16.88;;;;;;;;;;6195710;28;20069;-75
2022/11/05 10:17:29;;;;;;;31.77;17.70;;;;;;;;;;6179758;28;20019;-74
2022/11/05 10:20:36;;;;;;;30.53;16.40;;;;;;;;;;6196555;28;20030;-74
2022/11/05 10:23:36;;;;;;;29.30;16.85;;;;;;;;;;6196384;28;20829;-74
2022/11/05 10:26:36;;;;;;;31.98;17.83;;;;;;;;;;6196811;28;20022;-74
2022/11/05 10:29:37;;;;;;;39.20;18.93;;;;;;;;;;6196697;28;20034;-75
2022/11/05 10:32:38;;;;;;;35.67;19.07;;;;;;;;;;6196252;28;20026;-74
2022/11/05 10:35:45;;;;;;;25.48;14.65;;;;;;;;;;6177645;28;20030;-73
2022/11/05 10:38:46;;;;;;;24.70;16.25;;;;;;;;;;6191680;28;20014;-74
2022/11/05 10:42:02;;;;;;;37.45;23.30;;;;;;;;;;6196203;28;20446;-73
2022/11/05 10:45:05;;;;;;;30.38;18.75;;;;;;;;;;6196405;28;20033;-74
2022/11/05 10:48:16;;;;;;;25.60;15.80;;;;;;;;;;6194387;28;20034;-73
2022/11/05 10:51:17;;;;;;;29.92;16.85;;;;;;;;;;6194108;28;20054;-73
2022/11/05 10:54:20;;;;;;;21.13;12.37;;;;;;;;;;6175266;28;20033;-73
2022/11/05 10:57:26;;;;;;;22.80;13.90;;;;;;;;;;6196234;28;20090;-73
2022/11/05 11:00:27;;;;;;;20.17;12.38;;;;;;;;;;6194026;28;20061;-73
2022/11/05 11:03:30;;;;;;;23.63;13.60;;;;;;;;;;6192446;28;20558;-74
2022/11/05 11:06:33;;;;;;;24.25;12.95;;;;;;;;;;6193181;28;20536;-74
2022/11/05 11:09:35;;;;;;;18.17;11.27;;;;;;;;;;6194769;28;20106;-74
2022/11/05 11:12:37;;;;;;;16.08;11.75;;;;;;;;;;6176459;28;20022;-74
2022/11/05 11:15:37;;;;;;;20.08;12.38;;;;;;;;;;6193637;28;20069;-73
2022/11/05 11:18:38;;;;;;;17.27;10.75;;;;;;;;;;6191769;28;20439;-75
2022/11/05 11:21:40;;;;;;;18.98;11.85;;;;;;;;;;6173716;28;20268;-73
2022/11/05 11:24:46;;;;;;;24.38;14.50;;;;;;;;;;6191382;28;20053;-72
2022/11/05 11:27:46;;;;;;;27.13;15.32;;;;;;;;;;6192572;28;20061;-73
2022/11/05 11:30:48;;;;;;;42.13;20.38;;;;;;;;;;6192349;28;20018;-73
2022/11/05 11:33:50;;;;;;;23.80;12.18;;;;;;;;;;6176720;28;20025;-73
2022/11/05 11:36:54;;;;;;;21.63;10.68;;;;;;;;;;6194001;28;20096;-73
2022/11/05 11:39:56;;;;;;;21.30;11.27;;;;;;;;;;6195205;28;20022;-73
2022/11/05 11:42:56;;;;;;;;;;;;;;;;;;6198989;28;20097;-74
2022/11/05 11:45:57;;;;;;;18.50;9.68;;;;;;;;;;6199756;28;19906;-73
2022/11/05 11:48:57;;;;;;;19.60;11.90;;;;;;;;;;6199124;28;20026;-73
2022/11/05 11:52:08;;;;;;;22.87;12.40;;;;;;;;;;6198646;28;20022;-73
2022/11/05 11:55:08;;;;;;;16.35;9.60;;;;;;;;;;6177864;28;20014;-73
2022/11/05 11:58:10;;;;;;;16.67;8.35;;;;;;;;;;6198273;28;20057;-73
2022/11/05 12:01:16;;;;;;;25.67;14.93;;;;;;;;;;6178686;28;20500;-73
2022/11/05 12:04:38;;;;;;;22.77;12.88;;;;;;;;;;6198212;28;20025;-73
2022/11/05 12:08:04;;;;;;;22.48;11.40;;;;;;;;;;6198792;28;20105;-74
2022/11/05 12:11:09;;;;;;;15.95;9.38;;;;;;;;;;6196826;28;20023;-74
2022/11/05 12:14:15;;;;;;;16.90;9.27;;;;;;;;;;6197067;28;20025;-74
2022/11/05 12:17:21;;;;;;;47.50;19.90;;;;;;;;;;6180671;28;20076;-73
2022/11/05 12:20:21;;;;;;;30.52;16.23;;;;;;;;;;6199027;28;20023;-73
2022/11/05 12:23:21;;;;;;;25.13;12.80;;;;;;;;;;6195947;28;20466;-73
2022/11/05 12:26:40;;;;;;;19.05;12.32;;;;;;;;;;6198386;28;20018;-73
2022/11/05 12:30:00;;;;;;;21.73;9.73;;;;;;;;;;6198263;28;20122;-73
2022/11/05 12:33:01;;;;;;;17.75;9.93;;;;;;;;;;6197708;28;20084;-73
2022/11/05 12:36:21;;;;;;;16.48;8.68;;;;;;;;;;6197568;28;20052;-73
2022/11/05 12:39:30;;;;;;;15.77;9.38;;;;;;;;;;6178276;28;20344;-73
2022/11/05 12:42:31;;;;;;;20.92;10.98;;;;;;;;;;6196404;28;20518;-75
2022/11/05 12:45:49;;;;;;;14.18;8.55;;;;;;;;;;6196302;28;20087;-73
2022/11/05 12:48:56;;;;;;;11.98;8.15;;;;;;;;;;6180803;28;20053;-73
2022/11/05 12:51:56;;;;;;;13.52;8.25;;;;;;;;;;6191472;28;20328;-73
2022/11/05 12:54:57;;;;;;;17.20;8.30;;;;;;;;;;6179375;28;20026;-73
2022/11/05 12:58:02;;;;;;;15.17;7.93;;;;;;;;;;6196552;28;20029;-73
2022/11/05 13:01:12;;;;;;;14.07;8.38;;;;;;;;;;6192694;28;20030;-73
2022/11/05 13:04:31;;;;;;;18.77;8.52;;;;;;;;;;6195881;28;20033;-73
2022/11/05 13:07:35;;;;;;;18.23;11.20;;;;;;;;;;6197090;28;20072;-73
2022/11/05 13:10:50;;;;;;;16.88;10.05;;;;;;;;;;6179159;28;20029;-73
2022/11/05 13:14:06;;;;;;;11.73;7.75;;;;;;;;;;6193064;28;20029;-73
2022/11/05 13:17:09;;;;;;;13.90;7.25;;;;;;;;;;6195638;28;20029;-74
2022/11/05 13:20:20;;;;;;;10.55;6.60;;;;;;;;;;6196896;28;20041;-74
2022/11/05 13:23:22;;;;;;;15.32;7.65;;;;;;;;;;6179559;28;20019;-73
2022/11/05 13:26:29;;;;;;;13.70;8.27;;;;;;;;;;6195009;28;20015;-74
2022/11/05 13:29:31;;;;;;;16.40;10.77;;;;;;;;;;6196157;28;20023;-74
2022/11/05 13:32:34;;;;;;;17.10;11.05;;;;;;;;;;6196040;28;20030;-74
2022/11/05 13:35:47;;;;;;;14.48;8.88;;;;;;;;;;6180981;28;20382;-74
2022/11/05 13:38:59;;;;;;;12.93;8.20;;;;;;;;;;6194453;28;20153;-74
2022/11/05 13:42:07;;;;;;;13.32;8.25;;;;;;;;;;6178632;28;20041;-74
2022/11/05 13:45:30;;;;;;;14.68;8.25;;;;;;;;;;6196489;28;20022;-74
2022/11/05 13:48:56;;;;;;;17.58;11.38;;;;;;;;;;6197262;28;20018;-75
2022/11/05 13:52:07;;;;;;;22.15;13.10;;;;;;;;;;6189346;28;20053;-75
2022/11/05 13:55:18;;;;;;;14.88;9.65;;;;;;;;;;6192862;28;20015;-75
2022/11/05 13:58:39;;;;;;;20.02;13.85;;;;;;;;;;6175735;28;20080;-75
2022/11/05 14:02:05;;;;;;;27.55;16.88;;;;;;;;;;6147260;28;20045;-74
2022/11/05 14:05:06;;;;;;;18.98;11.73;;;;;;;;;;6141078;28;20049;-75
2022/11/05 14:08:08;;;;;;;21.50;14.13;;;;;;;;;;6195378;28;20508;-75
2022/11/05 14:11:15;;;;;;;17.63;11.30;;;;;;;;;;6195059;28;20022;-75
2022/11/05 14:14:35;;;;;;;17.95;9.88;;;;;;;;;;6194489;28;20390;-75
2022/11/05 14:17:54;;;;;;;22.80;11.88;;;;;;;;;;6195633;28;20068;-76
2022/11/05 14:20:59;;;;;;;18.40;11.48;;;;;;;;;;6191153;28;20018;-73
2022/11/05 14:24:19;;;;;;;18.10;12.30;;;;;;;;;;6195455;28;20065;-73
2022/11/05 14:27:19;;;;;;;20.95;13.02;;;;;;;;;;6178194;28;20710;-73
2022/11/05 14:30:38;;;;;;;22.98;13.73;;;;;;;;;;6196422;28;20612;-73
2022/11/05 14:33:39;;;;;;;27.65;18.67;;;;;;;;;;6196324;28;20462;-75
2022/11/05 14:36:40;;;;;;;22.33;13.20;;;;;;;;;;6180063;28;20022;-75
2022/11/05 14:39:41;;;;;;;;;;;;;;;;;;6193425;28;20026;-74
2022/11/05 14:42:48;;;;;;;28.75;13.18;;;;;;;;;;6195360;28;19924;-74
2022/11/05 14:45:53;;;;;;;23.73;13.57;;;;;;;;;;6194065;28;20026;-73
2022/11/05 14:48:59;;;;;;;29.13;17.80;;;;;;;;;;6194740;28;20025;-73
2022/11/05 14:52:05;;;;;;;28.75;14.65;;;;;;;;;;6195506;28;20046;-73
2022/11/05 14:55:05;;;;;;;20.05;13.55;;;;;;;;;;6177533;28;20033;-74
2022/11/05 14:58:18;;;;;;;18.40;13.43;;;;;;;;;;6195309;28;20289;-73
2022/11/05 15:01:30;;;;;;;30.30;20.55;;;;;;;;;;6193648;28;20036;-72
2022/11/05 15:04:30;;;;;;;;;;;;;;;;;;6193975;28;20117;-73
2022/11/05 15:07:35;;;;;;;20.02;12.57;;;;;;;;;;6195790;28;19913;-73
2022/11/05 15:10:36;;;;;;;19.25;12.98;;;;;;;;;;6178739;28;20022;-75
2022/11/05 15:13:45;;;;;;;21.33;11.43;;;;;;;;;;6192907;28;20037;-74
2022/11/05 15:16:53;;;;;;;19.92;11.75;;;;;;;;;;6199715;28;20632;-73
2022/11/05 15:19:53;;;;;;;26.27;14.90;;;;;;;;;;6200036;28;20022;-74
2022/11/05 15:23:05;;;;;;;28.95;17.08;;;;;;;;;;6198467;28;20126;-76
2022/11/05 15:26:14;;;;;;;28.67;18.35;;;;;;;;;;6181998;28;20026;-73
2022/11/05 15:29:16;;;;;;;15.95;11.00;;;;;;;;;;6177338;28;20046;-72
2022/11/05 15:32:16;;;;;;;;;;;;;;;;;;6202088;28;20022;-73
2022/11/05 15:35:17;;;;;;;24.48;12.50;;;;;;;;;;6199362;28;19909;-72
2022/11/05 15:38:37;;;;;;;23.80;14.43;;;;;;;;;;6200019;28;20033;-74
2022/11/05 15:41:37;;;;;;;22.60;12.65;;;;;;;;;;6180754;28;20035;-74
2022/11/05 15:44:39;;;;;;;25.77;14.40;;;;;;;;;;6198375;28;20030;-74
2022/11/05 15:47:44;;;;;;;30.23;15.10;;;;;;;;;;6182202;28;20277;-73
2022/11/05 15:50:44;;;;;;;30.58;17.65;;;;;;;;;;6198188;28;20026;-73
2022/11/05 15:53:44;;;;;;;23.58;13.13;;;;;;;;;;6198912;28;20030;-73
2022/11/05 15:56:46;;;;;;;22.40;13.48;;;;;;;;;;6198363;28;20030;-73
2022/11/05 15:59:47;;;;;;;25.85;14.90;;;;;;;;;;6199169;28;20042;-73
2022/11/05 16:02:53;;;;;;;36.15;20.08;;;;;;;;;;6199408;28;20019;-74
2022/11/05 16:05:53;;;;;;;31.27;20.15;;;;;;;;;;6182244;28;20022;-74
2022/11/05 16:08:53;;;;;;;57.50;28.45;;;;;;;;;;6198541;28;20011;-73
2022/11/05 16:12:12;;;;;;;35.33;20.83;;;;;;;;;;6199129;28;20041;-73
2022/11/05 16:15:13;;;;;;;30.33;17.95;;;;;;;;;;6199172;28;20025;-74
2022/11/05 16:18:19;;;;;;;30.30;16.02;;;;;;;;;;6199332;28;20030;-74
2022/11/05 16:21:21;;;;;;;25.65;13.18;;;;;;;;;;6199705;28;20061;-75
2022/11/05 16:24:22;;;;;;;21.13;13.43;;;;;;;;;;6199190;28;20194;-75
2022/11/05 16:27:22;;;;;;;23.98;12.65;;;;;;;;;;6178332;28;20491;-75
2022/11/05 16:30:23;;;;;;;20.20;11.10;;;;;;;;;;6198108;28;20371;-75
2022/11/05 16:33:43;;;;;;;16.30;9.97;;;;;;;;;;6180451;28;20050;-75
2022/11/05 16:36:43;;;;;;;19.80;9.73;;;;;;;;;;6198232;28;20026;-75
2022/11/05 16:39:43;;;;;;;23.63;11.15;;;;;;;;;;6199887;28;20054;-74
2022/11/05 16:42:47;;;;;;;18.37;10.70;;;;;;;;;;6199189;28;20708;-75
2022/11/05 16:45:47;;;;;;;23.73;11.02;;;;;;;;;;6197422;28;20498;-75
2022/11/05 16:48:47;;;;;;;17.85;10.60;;;;;;;;;;6196849;28;20031;-75
2022/11/05 16:51:47;;;;;;;18.30;10.73;;;;;;;;;;6194376;28;20366;-75
2022/11/05 16:54:48;;;;;;;26.95;15.40;;;;;;;;;;6196362;28;20558;-74
2022/11/05 16:57:49;;;;;;;23.53;12.80;;;;;;;;;;6197990;28;20038;-75
2022/11/05 17:00:50;;;;;;;;;;;;;;;;;;6181000;28;20064;-75
2022/11/05 17:03:50;;;;;;;36.00;17.92;;;;;;;;;;6178888;28;19961;-75
2022/11/05 17:06:51;;;;;;;24.93;13.27;;;;;;;;;;6198594;28;20049;-75
2022/11/05 17:09:51;;;;;;;28.48;16.98;;;;;;;;;;6197299;28;20026;-72
2022/11/05 17:12:51;;;;;;;40.10;18.73;;;;;;;;;;6179319;28;20073;-75
2022/11/05 17:15:51;;;;;;;33.40;17.97;;;;;;;;;;6196121;28;20023;-73
2022/11/05 17:18:52;;;;;;;51.65;23.90;;;;;;;;;;6196494;28;20034;-75
2022/11/05 17:21:52;;;;;;;46.60;19.98;;;;;;;;;;6178300;28;20026;-74
2022/11/05 17:24:52;;;;;;;48.90;24.15;;;;;;;;;;6195894;28;20367;-73
2022/11/05 17:27:52;;;;;;;48.67;24.55;;;;;;;;;;6194687;28;20027;-75
2022/11/05 17:30:53;;;;;;;36.30;17.97;;;;;;;;;;6179477;28;20018;-75
2022/11/05 17:33:57;;;;;;;38.97;19.60;;;;;;;;;;6180669;28;20473;-75
2022/11/05 17:36:57;;;;;;;33.08;17.83;;;;;;;;;;6179120;28;20418;-75
2022/11/05 17:39:57;;;;;;;37.67;20.70;;;;;;;;;;6178052;28;20026;-75
2022/11/05 17:42:57;;;;;;;27.63;17.58;;;;;;;;;;6196631;28;20340;-75
2022/11/05 17:45:57;;;;;;;28.83;15.20;;;;;;;;;;6177755;28;20033;-76
2022/11/05 17:48:58;;;;;;;25.23;13.27;;;;;;;;;;6198035;28;20094;-75
2022/11/05 17:51:58;;;;;;;30.43;14.27;;;;;;;;;;6197246;28;20022;-75
2022/11/05 17:54:58;;;;;;;27.48;13.93;;;;;;;;;;6196044;28;20153;-75
2022/11/05 17:57:58;;;;;;;24.00;13.07;;;;;;;;;;6177005;28;20390;-75
2022/11/05 18:00:58;;;;;;;26.43;15.77;;;;;;;;;;6192463;28;20044;-75
2022/11/05 18:03:59;;;;;;;19.05;12.15;;;;;;;;;;6180330;28;20033;-76
2022/11/05 18:06:59;;;;;;;23.00;11.35;;;;;;;;;;6195016;28;20022;-76
2022/11/05 18:09:59;;;;;;;27.47;13.07;;;;;;;;;;6180164;28;20022;-76
2022/11/05 18:12:59;;;;;;;21.33;12.25;;;;;;;;;;6197194;28;20033;-75
2022/11/05 18:15:59;;;;;;;22.83;10.93;;;;;;;;;;6196725;28;20022;-75
2022/11/05 18:19:00;;;;;;;18.63;11.53;;;;;;;;;;6196965;28;20030;-75
2022/11/05 18:22:00;;;;;;;26.33;13.52;;;;;;;;;;6179876;28;20117;-76
2022/11/05 18:25:00;;;;;;;21.65;10.60;;;;;;;;;;6196195;28;20487;-75
2022/11/05 18:28:01;;;;;;;20.90;12.00;;;;;;;;;;6194057;28;20289;-75
2022/11/05 18:31:01;;;;;;;27.10;15.23;;;;;;;;;;6195156;28;20050;-75
2022/11/05 18:34:01;;;;;;;24.48;12.07;;;;;;;;;;6195906;28;20022;-76
2022/11/05 18:37:01;;;;;;;24.87;12.47;;;;;;;;;;6194787;28;20101;-75